KSHN

Sanderson Field Airport

Shelton, Washington, USA
METAR KSHN 241253Z AUTO 22007KT 4SM BR FEW007 OVC012 12/11 A3000 RMK AO2 SLP157 T01170106
Observed Flight Rules
May-24 @ 12:53 UTC (59 minutes ago) Marginal Visual Flight Rules
Wind Visibility Clouds Conditions
220° at 7 knots 4 miles
  • Few at 700' AGL
  • Overcast at 1,200' AGL
  • Mist
Temperatures Readings
Current 12°C / 54°F
Dewpoint 11°C / 52°F
Humidity 94%
Altimeter 30" Hg
Pressure 1015.7 hPa
Elevation 82
METAR KSHN 241253Z AUTO 22007KT 4SM BR FEW007 OVC012 12/11 A3000 RMK AO2 SLP157 T01170106
Observed Flight Rules
May-24 @ 12:53 UTC
(59 minutes ago)
MVFR
Wind Visibility
220° at 7 knots 4 miles
Clouds
  • Few at 700' AGL
  • Overcast at 1,200' AGL
Conditions
  • Mist
Temperature Dewpoint
12°C / 54°F 11°C / 52°F
Humidity Altimeter Pressure
94% 30" Hg 1015.7 hPa